Time;durP1;ratioP1;P1;durP2;ratioP2;P2;SDS_P1;SDS_P2;PMS_P1;PMS_P2;Temp;Humidity;BMP_temperature;BMP_pressure;BME280_temperature;BME280_humidity;BME280_pressure;Samples;Min_cycle;Max_cycle;Signal;HPM_P1;HPM_P2
2023/06/27 00:00:11;;;;;;;6.87;4.53;;;;;;;21.78;49.39;98867.72;4481453;31;34277;-92
2023/06/27 00:02:40;;;;;;;8.25;4.50;;;;;;;21.76;49.28;98868.69;4481344;32;34797;-92
2023/06/27 00:05:08;;;;;;;7.28;4.03;;;;;;;21.79;49.18;98877.34;4482407;32;33773;-87
2023/06/27 00:07:35;;;;;;;7.30;4.10;;;;;;;21.69;48.94;98873.31;4480959;32;33661;-93
2023/06/27 00:10:04;;;;;;;7.07;4.45;;;;;;;21.77;48.62;98870.41;4495817;31;33563;-82
2023/06/27 00:12:31;;;;;;;8.02;4.40;;;;;;;21.78;48.86;98872.09;4498223;31;33758;-81
2023/06/27 00:14:59;;;;;;;8.57;4.62;;;;;;;21.75;48.96;98874.88;4498212;31;33780;-82
2023/06/27 00:17:27;;;;;;;7.00;4.47;;;;;;;21.60;49.10;98881.59;4497986;31;33417;-82
2023/06/27 00:19:58;;;;;;;8.45;4.53;;;;;;;21.64;49.28;98884.97;4485691;31;34270;-85
2023/06/27 00:22:26;;;;;;;7.22;4.25;;;;;;;21.62;49.66;98874.47;4481728;32;33708;-93
2023/06/27 00:24:54;;;;;;;7.97;4.20;;;;;;;21.61;49.39;98878.88;4482500;32;33759;-82
2023/06/27 00:27:21;;;;;;;10.45;4.75;;;;;;;21.56;49.71;98887.91;4482549;32;33598;-81
2023/06/27 00:29:49;;;;;;;7.72;4.53;;;;;;;21.51;49.82;98884.53;4495248;31;33440;-87
2023/06/27 00:32:17;;;;;;;7.68;4.35;;;;;;;21.35;50.61;98879.81;4499895;31;34832;-82
2023/06/27 00:34:45;;;;;;;7.93;4.55;;;;;;;21.42;50.70;98890.16;4498372;31;35081;-94
2023/06/27 00:37:12;;;;;;;8.02;4.45;;;;;;;21.40;50.64;98887.56;4499694;31;34021;-82
2023/06/27 00:39:41;;;;;;;9.80;4.35;;;;;;;21.43;50.76;98887.47;4489343;31;33224;-88
2023/06/27 00:42:08;;;;;;;8.02;4.15;;;;;;;21.40;51.16;98881.44;4483707;31;34053;-89
2023/06/27 00:44:37;;;;;;;7.65;4.45;;;;;;;21.41;51.23;98878.75;4484093;32;34941;-82
2023/06/27 00:47:05;;;;;;;8.35;4.45;;;;;;;21.48;51.28;98884.66;4484257;31;34022;-87
2023/06/27 00:49:33;;;;;;;7.25;4.12;;;;;;;21.38;51.46;98895.53;4497720;31;33146;-82
2023/06/27 00:52:01;;;;;;;6.68;4.15;;;;;;;21.41;51.11;98899.00;4498419;31;33702;-82
2023/06/27 00:54:29;;;;;;;7.40;4.60;;;;;;;21.44;50.95;98888.31;4498611;31;34215;-82
2023/06/27 00:56:58;;;;;;;6.53;4.10;;;;;;;21.43;50.78;98886.59;4498417;31;34573;-95
2023/06/27 00:59:26;;;;;;;7.55;4.05;;;;;;;21.40;50.65;98877.00;4484054;31;34143;-81
2023/06/27 01:01:53;;;;;;;7.82;4.37;;;;;;;21.28;51.17;98873.00;4482515;32;34402;-81
2023/06/27 01:04:21;;;;;;;8.32;4.18;;;;;;;21.23;51.31;98874.94;4482290;31;33559;-82
2023/06/27 01:06:57;;;;;;;8.25;4.57;;;;;;;21.19;51.33;98870.72;4482574;32;33984;-86
2023/06/27 01:09:36;;;;;;;6.75;4.47;;;;;;;21.24;51.32;98876.66;4483902;32;33744;-82
2023/06/27 01:12:18;;;;;;;7.72;4.30;;;;;;;21.22;51.45;98875.88;4482550;32;34240;-95
2023/06/27 01:14:47;;;;;;;6.85;4.50;;;;;;;21.22;52.04;98875.88;4485290;31;34893;-93
2023/06/27 01:17:14;;;;;;;10.93;5.03;;;;;;;21.10;52.61;98871.00;4499528;31;34805;-94
2023/06/27 01:19:44;;;;;;;9.18;5.43;;;;;;;21.12;52.74;98863.91;4498422;31;34276;-81
2023/06/27 01:22:16;;;;;;;8.75;4.80;;;;;;;21.05;52.97;98867.69;4499474;31;34594;-82
2023/06/27 01:24:43;;;;;;;8.43;4.95;;;;;;;21.14;52.89;98857.69;4497782;31;34046;-81
2023/06/27 01:27:14;;;;;;;7.47;4.82;;;;;;;21.21;52.52;98846.91;4484233;32;33791;-82
2023/06/27 01:29:42;;;;;;;8.50;4.75;;;;;;;21.11;52.79;98843.75;4483685;32;33189;-82
2023/06/27 01:32:18;;;;;;;11.32;5.00;;;;;;;21.14;52.83;98836.59;4483730;32;34674;-81
2023/06/27 01:35:09;;;;;;;9.35;4.95;;;;;;;21.11;53.16;98841.13;4484759;31;35075;-85
2023/06/27 01:37:44;;;;;;;7.75;4.50;;;;;;;21.12;53.15;98834.94;4499457;31;34556;-82
2023/06/27 01:40:13;;;;;;;7.00;4.25;;;;;;;21.01;53.12;98831.81;4494592;31;34351;-83
2023/06/27 01:42:43;;;;;;;8.57;4.40;;;;;;;21.25;52.54;98835.34;4490436;31;34710;-89
2023/06/27 01:45:11;;;;;;;7.18;4.05;;;;;;;21.08;52.68;98833.31;4483403;31;35079;-81
2023/06/27 01:47:41;;;;;;;6.35;3.97;;;;;;;21.18;52.32;98824.19;4488667;31;34134;-93
2023/06/27 01:50:10;;;;;;;7.30;4.07;;;;;;;21.07;52.25;98831.59;4494317;31;34100;-94
2023/06/27 01:52:39;;;;;;;7.85;4.35;;;;;;;21.03;52.25;98837.91;4496451;31;34745;-81
2023/06/27 01:55:08;;;;;;;7.80;4.18;;;;;;;21.23;51.15;98830.13;4497155;31;33890;-95
2023/06/27 01:57:36;;;;;;;6.65;4.18;;;;;;;21.03;51.51;98827.34;4494229;31;33897;-94
2023/06/27 02:00:06;;;;;;;7.95;3.95;;;;;;;21.05;51.56;98828.16;4488598;31;33348;-82
2023/06/27 02:02:42;;;;;;;7.70;3.87;;;;;;;21.03;51.40;98824.72;4492719;31;34674;-81
2023/06/27 02:05:10;;;;;;;7.57;4.50;;;;;;;21.14;51.09;98827.84;4492942;31;34730;-82
2023/06/27 02:07:38;;;;;;;7.28;4.10;;;;;;;21.10;51.01;98826.19;4483155;32;34633;-93
2023/06/27 02:10:07;;;;;;;6.85;4.22;;;;;;;21.03;50.83;98822.09;4483597;32;33385;-93
2023/06/27 02:12:39;;;;;;;6.95;4.60;;;;;;;21.07;50.92;98826.34;4483422;32;34001;-92
2023/06/27 02:15:07;;;;;;;7.35;4.10;;;;;;;21.06;51.21;98828.13;4483187;32;34214;-82
2023/06/27 02:17:34;;;;;;;9.07;4.80;;;;;;;21.04;51.34;98826.44;4487514;31;34700;-90
2023/06/27 02:20:03;;;;;;;7.53;3.70;;;;;;;21.06;51.32;98835.13;4483382;32;33889;-89
2023/06/27 02:22:33;;;;;;;6.70;4.18;;;;;;;21.00;51.58;98830.09;4483459;32;33913;-82
2023/06/27 02:25:01;;;;;;;8.70;4.35;;;;;;;20.94;51.23;98831.16;4496590;31;34537;-82
2023/06/27 02:27:28;;;;;;;8.77;4.70;;;;;;;21.05;50.98;98828.16;4498879;31;33911;-95
2023/06/27 02:29:56;;;;;;;14.57;4.75;;;;;;;21.09;50.80;98827.13;4499304;31;33447;-82
2023/06/27 02:32:23;;;;;;;7.35;4.55;;;;;;;21.20;50.41;98817.06;4497519;31;33949;-82
2023/06/27 02:34:51;;;;;;;7.85;4.75;;;;;;;21.30;50.41;98800.00;4486469;31;34192;-89
2023/06/27 02:37:18;;;;;;;8.52;4.40;;;;;;;21.13;50.58;98803.22;4483115;32;33566;-88
2023/06/27 02:39:46;;;;;;;7.60;4.28;;;;;;;21.19;50.35;98802.16;4483334;32;33179;-92
2023/06/27 02:42:13;;;;;;;6.80;4.25;;;;;;;21.10;50.50;98795.47;4489724;31;34007;-81
2023/06/27 02:44:41;;;;;;;9.13;4.18;;;;;;;21.10;50.47;98789.28;4497646;31;34224;-83
2023/06/27 02:47:08;;;;;;;7.00;4.12;;;;;;;21.14;50.27;98793.56;4497570;31;32930;-93
2023/06/27 02:49:36;;;;;;;6.90;4.37;;;;;;;21.14;50.29;98781.25;4498145;31;34260;-93
2023/06/27 02:52:04;;;;;;;7.35;3.72;;;;;;;21.10;50.34;98787.56;4497802;31;34843;-92
2023/06/27 02:54:31;;;;;;;7.57;3.75;;;;;;;21.12;50.33;98776.94;4497642;31;34957;-89
2023/06/27 02:56:59;;;;;;;7.70;4.25;;;;;;;21.26;50.08;98784.34;4498756;31;34309;-82
2023/06/27 02:59:27;;;;;;;6.45;3.75;;;;;;;21.22;49.95;98788.87;4490355;31;34053;-93
2023/06/27 03:01:55;;;;;;;6.57;4.05;;;;;;;21.24;49.77;98794.09;4483096;32;33648;-81
2023/06/27 03:04:24;;;;;;;9.55;4.37;;;;;;;21.12;50.76;98809.44;4481767;32;34099;-82
2023/06/27 03:06:52;;;;;;;8.25;3.95;;;;;;;21.10;51.01;98808.62;4483176;32;33942;-81
2023/06/27 03:09:20;;;;;;;6.65;4.07;;;;;;;21.09;51.10;98809.53;4483271;31;33439;-92
2023/06/27 03:11:48;;;;;;;7.82;4.43;;;;;;;21.09;51.37;98811.31;4481689;32;33262;-81
2023/06/27 03:14:17;;;;;;;7.55;4.40;;;;;;;21.20;50.95;98810.94;4482927;32;34942;-81
2023/06/27 03:16:45;;;;;;;6.68;4.37;;;;;;;20.87;52.70;98820.00;4489506;31;33812;-84
2023/06/27 03:19:13;;;;;;;8.35;3.95;;;;;;;21.15;52.31;98811.09;4497534;31;33865;-81
2023/06/27 03:21:41;;;;;;;9.20;3.83;;;;;;;21.26;51.99;98802.81;4497577;31;33396;-91
2023/06/27 03:24:09;;;;;;;5.87;3.67;;;;;;;21.37;51.61;98804.16;4492178;31;34919;-81
2023/06/27 03:26:42;;;;;;;7.47;4.57;;;;;;;21.31;52.04;98803.50;4498946;31;33974;-81
2023/06/27 03:29:09;;;;;;;7.50;4.55;;;;;;;21.27;51.88;98797.47;4499005;31;33631;-93
2023/06/27 03:31:37;;;;;;;7.22;4.45;;;;;;;21.20;51.76;98806.50;4496803;31;33648;-90
2023/06/27 03:34:05;;;;;;;8.18;4.37;;;;;;;21.27;51.75;98800.09;4482828;32;33846;-82
2023/06/27 03:36:36;;;;;;;10.75;4.70;;;;;;;21.17;52.07;98803.97;4488632;31;33822;-93
2023/06/27 03:39:04;;;;;;;6.78;4.50;;;;;;;21.27;52.38;98797.47;4497255;31;33280;-81
2023/06/27 03:41:32;;;;;;;6.97;4.28;;;;;;;21.14;53.42;98804.13;4497842;31;34840;-83
2023/06/27 03:44:00;;;;;;;8.60;4.40;;;;;;;21.19;53.67;98790.75;4482559;32;34713;-82
2023/06/27 03:46:29;;;;;;;8.07;4.37;;;;;;;21.18;53.96;98787.28;4481527;32;33885;-83
2023/06/27 03:48:58;;;;;;;7.07;4.37;;;;;;;21.17;54.58;98792.56;4485333;31;34079;-82
2023/06/27 03:51:26;;;;;;;8.65;4.18;;;;;;;21.28;54.45;98777.22;4498220;31;33824;-81
2023/06/27 03:53:54;;;;;;;7.15;3.90;;;;;;;21.59;53.79;98780.50;4496993;31;33998;-88
2023/06/27 03:56:21;;;;;;;6.95;4.28;;;;;;;21.81;53.42;98788.41;4498513;31;33712;-83
2023/06/27 03:58:48;;;;;;;8.05;4.22;;;;;;;21.71;53.86;98787.06;4495145;31;33055;-82
2023/06/27 04:01:16;;;;;;;8.43;4.47;;;;;;;21.96;53.72;98788.75;4482697;32;34475;-86
2023/06/27 04:03:46;;;;;;;8.23;4.40;;;;;;;21.89;54.07;98785.47;4482977;31;35006;-82
2023/06/27 04:06:13;;;;;;;8.15;4.47;;;;;;;22.08;53.87;98785.59;4498255;31;34293;-86
2023/06/27 04:08:41;;;;;;;15.55;5.30;;;;;;;22.00;54.69;98787.69;4488554;31;34321;-92
2023/06/27 04:11:09;;;;;;;10.50;4.28;;;;;;;22.00;55.28;98783.28;4497685;31;34804;-92
2023/06/27 04:13:37;;;;;;;7.40;4.40;;;;;;;21.98;55.58;98789.56;4497640;31;35169;-81
2023/06/27 04:16:05;;;;;;;8.38;4.65;;;;;;;21.73;55.45;98781.72;4498065;31;33974;-90
2023/06/27 04:18:32;;;;;;;10.75;4.60;;;;;;;21.96;54.79;98789.59;4496760;31;34240;-82
2023/06/27 04:21:00;;;;;;;8.50;4.62;;;;;;;22.08;55.54;98789.09;4497758;31;33766;-82
2023/06/27 04:23:27;;;;;;;8.50;4.95;;;;;;;22.22;52.35;98793.88;4497782;31;34150;-93
2023/06/27 04:26:02;;;;;;;8.50;4.68;;;;;;;21.94;52.15;98795.88;4498009;31;34658;-81
2023/06/27 04:28:31;;;;;;;9.02;4.72;;;;;;;22.23;50.65;98800.84;4496463;31;33188;-88
2023/06/27 04:31:00;;;;;;;8.20;5.03;;;;;;;22.26;51.34;98808.66;4497771;31;34001;-82
2023/06/27 04:33:28;;;;;;;9.63;4.32;;;;;;;22.00;51.92;98798.25;4497934;31;34925;-92
2023/06/27 04:36:02;;;;;;;10.35;5.90;;;;;;;22.25;51.20;98799.03;4497762;31;34691;-92
2023/06/27 04:38:30;;;;;;;11.15;5.05;;;;;;;22.09;51.74;98806.69;4497594;31;34191;-91
2023/06/27 04:40:57;;;;;;;9.77;4.87;;;;;;;22.02;52.34;98796.44;4497419;31;34047;-82
2023/06/27 04:43:26;;;;;;;7.82;4.53;;;;;;;22.07;52.50;98803.22;4496111;31;33975;-91
2023/06/27 04:45:54;;;;;;;9.82;4.93;;;;;;;22.27;53.25;98826.22;4497889;31;33925;-82
2023/06/27 04:48:22;;;;;;;10.50;4.45;;;;;;;22.22;54.54;98830.84;4497386;31;34272;-81
2023/06/27 04:50:49;;;;;;;10.85;5.25;;;;;;;22.32;54.34;98826.91;4496090;31;33820;-90
2023/06/27 04:53:20;;;;;;;9.13;5.12;;;;;;;22.28;55.28;98841.16;4497467;31;34210;-94
2023/06/27 04:55:48;;;;;;;12.27;5.80;;;;;;;22.40;55.54;98839.81;4497529;31;33940;-93
2023/06/27 04:58:16;;;;;;;10.63;5.95;;;;;;;22.42;56.83;98832.66;4497346;31;33594;-88
2023/06/27 05:00:44;;;;;;;11.60;6.22;;;;;;;22.40;58.60;98836.31;4497291;31;34017;-92
2023/06/27 05:03:13;;;;;;;11.12;6.60;;;;;;;22.09;60.61;98822.53;4497151;31;33838;-88
2023/06/27 05:05:41;;;;;;;9.52;7.45;;;;;;;22.06;61.22;98811.22;4496196;31;33966;-92
2023/06/27 05:08:09;;;;;;;12.30;7.37;;;;;;;22.11;62.56;98801.31;4496092;31;32605;-91
2023/06/27 05:10:37;;;;;;;10.95;7.05;;;;;;;21.90;63.93;98797.78;4497169;31;33720;-91
2023/06/27 05:13:04;;;;;;;10.90;7.70;;;;;;;21.92;64.20;98802.97;4497167;31;34267;-93
2023/06/27 05:15:32;;;;;;;11.27;7.18;;;;;;;21.74;65.79;98801.91;4498676;31;33940;-95
2023/06/27 05:18:05;;;;;;;10.73;8.00;;;;;;;22.10;65.25;98804.91;4499350;31;34316;-80
2023/06/27 05:20:34;;;;;;;12.13;7.62;;;;;;;22.23;65.70;98806.13;4499524;31;34053;-84
2023/06/27 05:23:01;;;;;;;13.48;7.82;;;;;;;22.24;65.55;98810.53;4498275;31;34229;-93
2023/06/27 05:25:30;;;;;;;10.48;7.40;;;;;;;22.37;65.68;98817.94;4499235;31;33525;-93
2023/06/27 05:27:58;;;;;;;11.05;7.68;;;;;;;22.16;67.95;98825.81;4498167;31;33672;-86
2023/06/27 05:30:26;;;;;;;10.65;8.15;;;;;;;22.53;67.08;98827.81;4498243;31;34655;-80
2023/06/27 05:32:55;;;;;;;10.30;7.82;;;;;;;22.86;66.17;98819.37;4485435;31;34380;-80
2023/06/27 05:35:23;;;;;;;14.00;7.90;;;;;;;23.06;61.51;98819.41;4498253;31;34688;-86
2023/06/27 05:37:50;;;;;;;11.02;8.05;;;;;;;23.35;60.57;98813.78;4499628;31;33904;-81
2023/06/27 05:40:18;;;;;;;14.95;7.90;;;;;;;23.42;60.89;98815.22;4499153;31;34704;-93
2023/06/27 05:42:45;;;;;;;12.57;8.32;;;;;;;23.73;58.81;98814.69;4499402;31;35006;-81
2023/06/27 05:45:13;;;;;;;11.90;7.47;;;;;;;23.37;59.74;98812.75;4499186;31;33819;-94
2023/06/27 05:47:44;;;;;;;14.07;7.90;;;;;;;23.77;59.20;98817.13;4499759;31;34312;-93
2023/06/27 05:50:12;;;;;;;12.88;8.75;;;;;;;22.85;61.65;98836.19;4499290;31;33822;-81
2023/06/27 05:52:39;;;;;;;12.40;8.15;;;;;;;22.69;61.82;98830.69;4499291;31;34907;-91
2023/06/27 05:55:07;;;;;;;13.48;8.73;;;;;;;22.49;62.87;98830.62;4497934;31;34513;-90
2023/06/27 05:57:35;;;;;;;12.73;8.27;;;;;;;23.18;60.59;98836.53;4490694;31;33344;-87
2023/06/27 06:00:03;;;;;;;11.52;8.55;;;;;;;23.00;61.85;98829.41;4494219;31;34021;-91
2023/06/27 06:02:38;;;;;;;;;;;;;;;23.03;61.26;98823.97;4498474;31;34142;-81
2023/06/27 06:05:09;;;;;;;11.98;9.20;;;;;;;23.34;61.42;98825.28;4498580;31;34055;-88
2023/06/27 06:07:42;;;;;;;13.18;9.82;;;;;;;23.62;61.50;98819.59;4483405;32;34199;-85
2023/06/27 06:10:11;;;;;;;12.10;9.27;;;;;;;22.71;62.71;98826.19;4483267;32;34012;-81
2023/06/27 06:12:38;;;;;;;12.32;8.38;;;;;;;23.02;61.95;98816.97;4483278;32;34941;-89
2023/06/27 06:15:06;;;;;;;15.35;9.23;;;;;;;23.10;62.19;98814.00;4483587;31;33949;-88
2023/06/27 06:17:34;;;;;;;14.73;9.60;;;;;;;22.88;62.95;98819.31;4482941;32;33480;-81
2023/06/27 06:20:03;;;;;;;11.88;9.35;;;;;;;23.31;61.25;98818.34;4481552;32;33653;-91
2023/06/27 06:22:31;;;;;;;15.20;9.95;;;;;;;23.28;62.65;98819.31;4483385;32;33862;-81
2023/06/27 06:24:59;;;;;;;11.80;8.65;;;;;;;23.23;61.28;98823.97;4482658;32;33707;-80
2023/06/27 06:27:27;;;;;;;11.27;8.77;;;;;;;23.52;61.64;98824.44;4481831;32;32937;-88
2023/06/27 06:29:54;;;;;;;17.33;8.73;;;;;;;23.66;61.22;98823.81;4489908;31;34891;-86
2023/06/27 06:32:22;;;;;;;12.85;8.35;;;;;;;23.53;62.06;98819.09;4497848;31;35226;-78
2023/06/27 06:34:50;;;;;;;12.13;8.93;;;;;;;23.62;60.04;98828.38;4498876;31;33590;-79
2023/06/27 06:37:17;;;;;;;13.68;8.90;;;;;;;23.35;60.92;98827.00;4499110;31;34083;-85
2023/06/27 06:39:45;;;;;;;14.70;9.25;;;;;;;23.14;62.37;98836.72;4498971;31;34773;-82
2023/06/27 06:42:12;;;;;;;12.20;9.57;;;;;;;23.15;62.26;98833.19;4498736;31;34103;-89
2023/06/27 06:44:44;;;;;;;12.73;9.65;;;;;;;23.01;63.80;98842.56;4497931;31;33625;-79
2023/06/27 06:47:12;;;;;;;13.20;9.52;;;;;;;23.45;61.49;98841.50;4499087;31;33282;-81
2023/06/27 06:49:40;;;;;;;10.95;8.55;;;;;;;23.07;62.52;98844.09;4498626;31;33659;-88
2023/06/27 06:52:07;;;;;;;17.15;9.00;;;;;;;23.17;62.31;98848.03;4471647;32;35089;-90
2023/06/27 06:54:35;;;;;;;12.30;9.23;;;;;;;23.40;61.28;98854.09;4482978;32;33952;-79
2023/06/27 06:57:03;;;;;;;11.85;8.20;;;;;;;23.49;61.80;98866.94;4496345;31;33276;-92
2023/06/27 06:59:30;;;;;;;13.48;8.07;;;;;;;22.88;62.96;98885.41;4488657;31;33984;-92
2023/06/27 07:01:58;;;;;;;14.23;9.27;;;;;;;22.90;62.90;98883.56;4498901;31;33810;-92
2023/06/27 07:04:25;;;;;;;14.15;9.63;;;;;;;23.04;62.45;98878.59;4485183;31;33387;-90
2023/06/27 07:06:53;;;;;;;11.88;9.00;;;;;;;23.38;61.90;98878.00;4481607;32;33505;-85
2023/06/27 07:09:21;;;;;;;12.82;9.07;;;;;;;23.15;62.84;98871.06;4483039;32;33997;-83
2023/06/27 07:11:50;;;;;;;10.90;9.02;;;;;;;22.89;64.10;98868.62;4483119;32;33887;-84
2023/06/27 07:14:20;;;;;;;13.62;9.70;;;;;;;23.03;63.74;98871.56;4482077;32;34026;-91
2023/06/27 07:16:48;;;;;;;12.13;9.77;;;;;;;23.04;63.46;98868.00;4497396;31;31859;-87
2023/06/27 07:19:15;;;;;;;12.40;9.52;;;;;;;23.17;63.44;98874.47;4497480;31;34557;-80
2023/06/27 07:21:43;;;;;;;15.30;10.13;;;;;;;23.14;64.29;98882.53;4498680;31;34304;-80
2023/06/27 07:24:12;;;;;;;12.48;9.43;;;;;;;22.97;63.77;98879.78;4497983;31;33618;-87
2023/06/27 07:26:39;;;;;;;14.87;9.77;;;;;;;23.22;63.36;98892.78;4488291;31;33449;-80
2023/06/27 07:29:07;;;;;;;16.35;9.63;;;;;;;23.29;63.97;98884.53;4482857;32;33780;-82
2023/06/27 07:31:34;;;;;;;11.85;9.52;;;;;;;23.58;61.97;98879.75;4482673;32;34945;-86
2023/06/27 07:34:02;;;;;;;12.27;9.50;;;;;;;23.39;62.88;98881.50;4492686;31;33877;-93
2023/06/27 07:36:30;;;;;;;14.05;9.45;;;;;;;23.23;63.64;98887.44;4498641;31;33568;-80
2023/06/27 07:38:58;;;;;;;13.02;9.40;;;;;;;23.24;63.68;98881.22;4497717;31;33710;-81
2023/06/27 07:41:26;;;;;;;11.75;9.48;;;;;;;23.17;63.03;98881.56;4498472;31;33839;-88
2023/06/27 07:43:53;;;;;;;14.25;8.88;;;;;;;23.00;62.77;98877.00;4489864;31;33931;-88
2023/06/27 07:46:21;;;;;;;12.43;8.82;;;;;;;23.18;63.33;98886.75;4482518;32;33491;-81
2023/06/27 07:48:48;;;;;;;13.43;8.77;;;;;;;23.02;63.67;98896.28;4482716;32;34754;-81
2023/06/27 07:51:16;;;;;;;10.68;8.40;;;;;;;23.32;63.02;98886.19;4482338;32;33927;-80
2023/06/27 07:53:44;;;;;;;13.45;9.57;;;;;;;23.55;61.45;98879.87;4483122;31;33876;-82
2023/06/27 07:56:11;;;;;;;16.00;8.48;;;;;;;23.36;62.50;98884.25;4482803;32;34339;-89
2023/06/27 07:58:38;;;;;;;13.32;9.02;;;;;;;23.40;63.20;98891.13;4482513;32;34077;-86
2023/06/27 08:01:06;;;;;;;14.30;8.50;;;;;;;23.44;61.88;98892.72;4488727;31;34311;-82
2023/06/27 08:03:34;;;;;;;13.13;8.82;;;;;;;23.22;62.45;98898.97;4491482;31;32268;-81
2023/06/27 08:06:05;;;;;;;12.00;8.38;;;;;;;23.60;62.01;98896.44;4482914;31;33388;-82
2023/06/27 08:08:33;;;;;;;11.30;8.63;;;;;;;23.54;62.50;98899.34;4482446;32;33614;-91
2023/06/27 08:11:00;;;;;;;12.82;8.07;;;;;;;23.71;61.85;98896.81;4482333;32;35007;-82
2023/06/27 08:13:28;;;;;;;13.93;8.13;;;;;;;24.20;60.75;98898.97;4482512;32;33623;-83
2023/06/27 08:15:56;;;;;;;11.48;8.88;;;;;;;23.56;62.80;98900.09;4469196;31;33498;-82
2023/06/27 08:18:23;;;;;;;11.85;8.70;;;;;;;23.76;62.55;98907.22;4498141;31;34058;-82
2023/06/27 08:20:51;;;;;;;14.45;8.90;;;;;;;23.84;61.41;98910.37;4497805;31;34933;-89
2023/06/27 08:23:18;;;;;;;14.80;8.55;;;;;;;23.91;61.60;98910.94;4495034;31;34050;-92
2023/06/27 08:25:46;;;;;;;10.73;8.35;;;;;;;23.54;61.72;98917.84;4486166;31;33030;-82
2023/06/27 08:28:13;;;;;;;15.82;8.77;;;;;;;23.58;60.94;98906.19;4498316;31;34709;-94
2023/06/27 08:30:43;;;;;;;12.85;8.35;;;;;;;23.66;61.52;98914.69;4497637;31;34351;-84
2023/06/27 08:33:11;;;;;;;14.82;9.10;;;;;;;23.60;61.56;98898.19;4482173;31;33894;-82
2023/06/27 08:35:39;;;;;;;10.50;8.18;;;;;;;23.64;61.86;98905.94;4482611;31;33284;-85
2023/06/27 08:38:06;;;;;;;11.50;8.77;;;;;;;23.76;61.90;98905.41;4482038;32;33838;-82
2023/06/27 08:40:35;;;;;;;11.43;8.38;;;;;;;23.50;62.24;98906.53;4487992;31;34209;-95
2023/06/27 08:43:05;;;;;;;13.98;9.20;;;;;;;23.73;61.40;98905.56;4496875;31;34560;-87
2023/06/27 08:45:35;;;;;;;16.62;9.15;;;;;;;23.91;60.52;98903.00;4497731;31;34302;-88
2023/06/27 08:48:08;;;;;;;10.40;8.18;;;;;;;23.86;61.38;98919.06;4494617;31;34314;-94
2023/06/27 08:50:39;;;;;;;13.05;8.95;;;;;;;24.05;61.98;98913.81;4488817;31;34257;-81
2023/06/27 08:53:10;;;;;;;14.32;9.27;;;;;;;24.06;61.49;98912.91;4500481;31;34691;-82
2023/06/27 08:55:41;;;;;;;13.38;9.00;;;;;;;23.72;62.01;98919.72;4499163;31;33236;-81
2023/06/27 08:58:11;;;;;;;13.55;8.45;;;;;;;23.69;61.49;98917.19;4498448;31;34956;-82
2023/06/27 09:00:39;;;;;;;12.25;8.77;;;;;;;23.69;61.81;98919.00;4491711;31;34189;-94
2023/06/27 09:03:07;;;;;;;11.98;8.95;;;;;;;23.59;62.52;98922.94;4497662;31;34496;-92
2023/06/27 09:05:36;;;;;;;12.30;8.90;;;;;;;24.16;60.36;98927.41;4499432;31;33318;-81
2023/06/27 09:08:05;;;;;;;14.85;8.55;;;;;;;23.60;62.24;98930.81;4498593;31;33713;-92
2023/06/27 09:10:33;;;;;;;12.40;8.65;;;;;;;23.82;61.95;98933.37;4498737;31;34115;-81
2023/06/27 09:13:01;;;;;;;14.63;8.93;;;;;;;24.06;61.33;98944.69;4500792;31;33637;-81
2023/06/27 09:15:28;;;;;;;13.57;9.32;;;;;;;24.33;60.56;98945.19;4503076;31;33391;-81
2023/06/27 09:17:56;;;;;;;11.63;8.25;;;;;;;24.54;60.40;98942.47;4501790;31;33653;-86
2023/06/27 09:20:24;;;;;;;10.65;8.20;;;;;;;24.56;59.74;98941.47;4500989;31;34247;-91
2023/06/27 09:22:52;;;;;;;13.05;9.02;;;;;;;24.23;60.67;98947.38;4488333;32;33780;-81
2023/06/27 09:25:23;;;;;;;11.10;8.68;;;;;;;24.02;62.15;98953.69;4489153;32;33727;-81
2023/06/27 09:27:51;;;;;;;11.52;8.60;;;;;;;24.18;61.71;98954.69;4491184;32;35142;-81
2023/06/27 09:30:23;;;;;;;11.18;9.07;;;;;;;24.50;60.72;98952.34;4492313;32;33752;-83
2023/06/27 09:32:54;;;;;;;11.73;8.20;;;;;;;24.54;59.26;98951.28;4487613;32;33751;-83
2023/06/27 09:35:25;;;;;;;14.38;8.93;;;;;;;24.20;60.40;98951.97;4485733;32;33613;-81
2023/06/27 09:38:08;;;;;;;14.18;9.02;;;;;;;24.52;59.38;98953.16;4483241;32;34716;-83
2023/06/27 09:40:39;;;;;;;15.13;9.02;;;;;;;24.31;60.40;98943.53;4483859;32;34293;-82
2023/06/27 09:43:07;;;;;;;13.35;8.52;;;;;;;24.50;60.32;98941.75;4486648;32;33926;-94
2023/06/27 09:45:34;;;;;;;11.32;8.73;;;;;;;24.71;59.90;98945.19;4485191;32;34573;-96
2023/06/27 09:48:02;;;;;;;13.35;9.05;;;;;;;24.67;60.44;98940.97;4486199;32;34668;-83
2023/06/27 09:50:31;;;;;;;12.37;9.00;;;;;;;24.45;59.85;98947.28;4482281;32;34874;-82
2023/06/27 09:53:00;;;;;;;13.18;9.02;;;;;;;24.56;59.49;98953.88;4484553;32;34913;-85
2023/06/27 09:55:28;;;;;;;11.25;8.45;;;;;;;24.60;59.28;98958.09;4486625;32;34913;-91
2023/06/27 09:57:58;;;;;;;10.90;8.38;;;;;;;24.66;59.32;98961.31;4491367;32;33965;-81
2023/06/27 10:00:26;;;;;;;10.85;8.27;;;;;;;24.84;59.67;98964.00;4484635;32;34144;-87
2023/06/27 10:02:54;;;;;;;11.50;8.55;;;;;;;24.66;59.47;98976.31;4492565;32;33907;-81
2023/06/27 10:05:22;;;;;;;12.65;8.43;;;;;;;24.84;59.53;98961.34;4492027;32;33049;-81
2023/06/27 10:07:52;;;;;;;13.62;8.13;;;;;;;24.83;59.47;98962.28;4501520;31;34068;-86
2023/06/27 10:10:20;;;;;;;11.12;8.13;;;;;;;24.88;59.15;98962.91;4505603;31;34398;-81
2023/06/27 10:12:48;;;;;;;10.95;7.70;;;;;;;24.87;57.95;98961.19;4508816;31;36442;-81
2023/06/27 10:15:17;;;;;;;10.57;7.97;;;;;;;25.03;58.32;98964.78;4508784;31;33337;-86
2023/06/27 10:17:45;;;;;;;13.52;8.20;;;;;;;24.74;58.03;98955.63;4508622;31;33648;-96
2023/06/27 10:20:13;;;;;;;11.48;7.82;;;;;;;24.74;57.60;98956.50;4508100;31;34432;-81
2023/06/27 10:22:43;;;;;;;9.73;7.40;;;;;;;25.04;56.29;98965.66;4509003;31;35005;-81
2023/06/27 10:25:11;;;;;;;10.85;7.85;;;;;;;25.02;56.86;98963.09;4505360;31;33499;-83
2023/06/27 10:27:39;;;;;;;9.48;7.40;;;;;;;25.17;57.27;98961.50;4494989;31;34416;-82
2023/06/27 10:30:19;;;;;;;11.18;7.22;;;;;;;24.86;57.51;98947.06;4491874;32;34106;-81
2023/06/27 10:32:47;;;;;;;14.13;7.60;;;;;;;24.83;57.66;98960.47;4492140;32;34702;-79
2023/06/27 10:35:25;;;;;;;10.27;7.07;;;;;;;25.12;55.83;98964.37;4490431;32;34188;-80
2023/06/27 10:38:08;;;;;;;10.52;6.75;;;;;;;25.02;55.85;98965.75;4496483;31;33750;-93
2023/06/27 10:41:09;;;;;;;10.35;7.03;;;;;;;25.01;54.68;98977.28;4491067;31;34054;-81
2023/06/27 10:43:55;;;;;;;9.73;6.45;;;;;;;24.69;55.29;98992.94;4485639;32;33890;-81
2023/06/27 10:46:26;;;;;;;10.43;6.50;;;;;;;25.43;53.90;99000.84;4486267;31;33234;-94
2023/06/27 10:49:02;;;;;;;10.65;5.53;;;;;;;24.83;54.32;98994.09;4499101;31;34006;-80
2023/06/27 10:51:43;;;;;;;16.30;6.05;;;;;;;24.71;54.69;99001.69;4501319;31;34073;-82
2023/06/27 10:54:13;;;;;;;8.20;5.82;;;;;;;24.14;56.09;99008.75;4505804;31;33756;-94
2023/06/27 10:56:42;;;;;;;11.48;6.28;;;;;;;24.68;54.97;99007.16;4508011;31;34078;-81
2023/06/27 10:59:17;;;;;;;10.18;6.57;;;;;;;24.43;56.71;99006.56;4506453;31;34817;-81
2023/06/27 11:01:52;;;;;;;;;;;;;;;24.73;56.45;99004.25;4510487;31;33718;-86
2023/06/27 11:04:27;;;;;;;8.13;5.62;;;;;;;24.93;56.06;99006.84;4510775;31;34395;-81
2023/06/27 11:07:00;;;;;;;11.63;6.05;;;;;;;24.53;56.33;99005.22;4509166;31;33546;-87
2023/06/27 11:09:29;;;;;;;8.45;5.70;;;;;;;24.86;54.80;99009.87;4509641;31;34478;-81
2023/06/27 11:12:11;;;;;;;8.93;5.72;;;;;;;24.73;55.72;99013.06;4505073;31;34303;-87
2023/06/27 11:14:41;;;;;;;9.15;6.32;;;;;;;24.66;54.88;99016.97;4504582;31;34559;-81
2023/06/27 11:17:09;;;;;;;8.30;5.80;;;;;;;24.12;56.27;99023.81;4506526;31;33652;-96
2023/06/27 11:19:42;;;;;;;9.00;5.75;;;;;;;24.34;55.90;99036.12;4504372;31;34152;-81
2023/06/27 11:22:11;;;;;;;11.70;5.55;;;;;;;24.46;56.41;99038.22;4502025;31;33742;-96
2023/06/27 11:24:41;;;;;;;11.25;5.47;;;;;;;24.03;56.22;99033.06;4501067;31;33978;-96
2023/06/27 11:27:09;;;;;;;9.15;5.75;;;;;;;23.81;57.14;99044.66;4502436;31;34181;-86
2023/06/27 11:29:36;;;;;;;8.95;5.80;;;;;;;23.71;56.87;99055.63;4502614;31;34064;-81
2023/06/27 11:32:04;;;;;;;7.82;6.10;;;;;;;23.82;57.11;99056.94;4502834;31;34087;-96
2023/06/27 11:34:32;;;;;;;14.77;6.25;;;;;;;23.64;57.82;99059.44;4485498;32;34510;-87
2023/06/27 11:37:00;;;;;;;12.48;6.22;;;;;;;24.01;56.78;99056.09;4485989;32;33312;-82